createdAt,value
2019-06-10T00:01:06.037Z,79.40
2019-06-10T00:03:32.430Z,77.17
2019-06-10T00:06:03.348Z,77.23
2019-06-10T00:08:30.838Z,77.93
2019-06-10T00:10:58.931Z,78.63
2019-06-10T00:13:26.968Z,78.00
2019-06-10T00:15:54.938Z,76.90
2019-06-10T00:18:38.430Z,79.90
2019-06-10T00:20:52.612Z,78.47
2019-06-10T00:23:21.225Z,83.33
2019-06-10T00:25:51.417Z,85.10
2019-06-10T00:28:21.584Z,81.77
2019-06-10T00:30:48.803Z,76.80
2019-06-10T00:33:16.818Z,78.10
2019-06-10T00:35:44.856Z,78.20
2019-06-10T00:38:14.762Z,77.90
2019-06-10T00:40:42.790Z,75.70
2019-06-10T00:43:13.305Z,78.33
2019-06-10T00:45:40.987Z,76.83
2019-06-10T00:48:21.307Z,76.40
2019-06-10T00:50:41.143Z,77.07
2019-06-10T00:53:09.901Z,77.17
2019-06-10T00:55:38.230Z,77.20
2019-06-10T00:58:07.494Z,78.80
2019-06-10T01:00:35.653Z,81.60
2019-06-10T01:03:03.960Z,80.17
2019-06-10T01:05:31.933Z,77.97
2019-06-10T01:08:01.428Z,78.80
2019-06-10T01:10:31.642Z,76.20
2019-06-10T01:13:00.811Z,76.70
2019-06-10T01:15:31.146Z,77.00
2019-06-10T01:17:58.760Z,79.73
2019-06-10T01:20:26.719Z,79.03
2019-06-10T01:22:54.811Z,75.30
2019-06-10T01:25:22.850Z,77.70
2019-06-10T01:27:51.534Z,77.20
2019-06-10T01:30:24.538Z,77.70
2019-06-10T01:32:50.653Z,77.00
2019-06-10T01:35:21.004Z,81.40
2019-06-10T01:37:48.428Z,76.67
2019-06-10T01:40:17.981Z,77.67
2019-06-10T01:42:46.092Z,79.47
2019-06-10T01:45:14.644Z,79.10
2019-06-10T01:47:43.797Z,79.73
2019-06-10T01:50:14.242Z,80.10
2019-06-10T01:52:41.594Z,77.17
2019-06-10T01:55:12.202Z,78.77
2019-06-10T01:57:41.314Z,82.67
2019-06-10T02:00:15.905Z,78.97
2019-06-10T02:02:44.797Z,76.57
2019-06-10T02:05:12.612Z,76.50
2019-06-10T02:07:41.017Z,81.60
2019-06-10T02:10:11.793Z,77.47
2019-06-10T02:12:41.446Z,74.80
2019-06-10T02:15:10.077Z,81.47
2019-06-10T02:17:38.470Z,78.27
2019-06-10T02:20:06.638Z,76.57
2019-06-10T02:22:34.611Z,80.80
2019-06-10T02:25:02.583Z,77.60
2019-06-10T02:27:31.501Z,81.57
2019-06-10T02:30:03.812Z,84.97
2019-06-10T02:32:36.859Z,80.13
2019-06-10T02:35:13.279Z,77.13
2019-06-10T02:37:32.679Z,78.80
2019-06-10T02:39:58.419Z,78.03
2019-06-10T02:42:35.495Z,79.67
2019-06-10T02:45:03.654Z,79.17
2019-06-10T02:47:36.338Z,77.30
2019-06-10T02:50:04.443Z,77.60
2019-06-10T02:52:34.350Z,79.30
2019-06-10T02:54:59.923Z,77.93
2019-06-10T02:57:32.919Z,80.07
2019-06-10T02:59:57.612Z,84.60
2019-06-10T03:02:29.994Z,76.67
2019-06-10T03:04:55.300Z,84.30
2019-06-10T03:07:26.796Z,80.47
2019-06-10T03:09:53.718Z,80.37
2019-06-10T03:12:24.003Z,76.33
2019-06-10T03:14:52.601Z,77.60
2019-06-10T03:17:24.574Z,79.13
2019-06-10T03:19:53.572Z,77.20
2019-06-10T03:22:22.971Z,78.87
2019-06-10T03:24:52.404Z,76.47
2019-06-10T03:27:21.137Z,82.63
2019-06-10T03:29:52.568Z,80.50
2019-06-10T03:32:23.188Z,79.07
2019-06-10T03:34:49.452Z,77.67
2019-06-10T03:37:18.302Z,79.63
2019-06-10T03:39:46.308Z,78.40
2019-06-10T03:42:14.270Z,84.73
2019-06-10T03:44:43.047Z,80.60
2019-06-10T03:47:12.187Z,77.40
2019-06-10T03:49:49.889Z,76.97
2019-06-10T03:52:09.941Z,77.33
2019-06-10T03:54:37.923Z,77.90
2019-06-10T03:57:05.884Z,76.97
2019-06-10T03:59:33.903Z,74.27
2019-06-10T04:02:02.346Z,76.00
2019-06-10T04:04:32.797Z,76.40
2019-06-10T04:07:03.769Z,77.47
2019-06-10T04:09:32.963Z,75.70
2019-06-10T04:12:02.060Z,77.90
2019-06-10T04:14:32.616Z,76.43
2019-06-10T04:16:59.774Z,77.80
2019-06-10T04:19:28.777Z,82.20
2019-06-10T04:21:56.853Z,78.90
2019-06-10T04:24:25.763Z,83.30
2019-06-10T04:26:54.529Z,74.07
2019-06-10T04:29:23.091Z,77.00
2019-06-10T04:31:52.460Z,74.87
2019-06-10T04:34:22.920Z,82.40
2019-06-10T04:36:52.427Z,78.10
2019-06-10T04:39:20.503Z,78.80
2019-06-10T04:41:49.512Z,79.33
2019-06-10T04:44:18.555Z,77.50
2019-06-10T04:46:46.660Z,80.50
2019-06-10T04:49:14.657Z,76.20
2019-06-10T04:51:43.490Z,72.20
2019-06-10T04:54:13.333Z,78.13
2019-06-10T04:56:42.884Z,76.47
2019-06-10T04:59:12.540Z,72.90
2019-06-10T05:01:42.641Z,73.10
2019-06-10T05:04:12.343Z,75.00
2019-06-10T05:06:42.010Z,75.10
2019-06-10T05:09:09.674Z,75.40
2019-06-10T05:11:37.652Z,73.97
2019-06-10T05:14:05.593Z,73.80
2019-06-10T05:16:35.812Z,73.07
2019-06-10T05:19:03.781Z,71.07
2019-06-10T05:21:33.764Z,76.57
2019-06-10T05:24:02.949Z,71.53
2019-06-10T05:26:33.303Z,73.40
2019-06-10T05:29:02.891Z,71.17
2019-06-10T05:31:34.651Z,74.27
2019-06-10T05:34:02.232Z,75.67
2019-06-10T05:36:31.083Z,73.27
2019-06-10T05:38:59.539Z,75.70
2019-06-10T05:41:28.975Z,72.67
2019-06-10T05:43:57.239Z,70.80
2019-06-10T05:46:25.761Z,73.43
2019-06-10T05:48:54.881Z,74.37
2019-06-10T05:51:24.850Z,71.20
2019-06-10T05:53:52.934Z,71.20
2019-06-10T05:56:22.396Z,73.20
2019-06-10T05:58:52.517Z,72.00
2019-06-10T06:01:22.420Z,72.40
2019-06-10T06:03:52.658Z,73.30
2019-06-10T06:06:19.688Z,75.40
2019-06-10T06:08:47.627Z,73.37
2019-06-10T06:11:15.616Z,71.13
2019-06-10T06:13:43.581Z,72.40
2019-06-10T06:16:12.634Z,73.27
2019-06-10T06:18:42.240Z,72.87
2019-06-10T06:21:22.500Z,72.03
2019-06-10T06:23:40.279Z,70.20
2019-06-10T06:26:08.333Z,71.40
2019-06-10T06:28:36.327Z,70.53
2019-06-10T06:31:04.284Z,72.07
2019-06-10T06:33:36.143Z,72.13
2019-06-10T06:36:03.571Z,80.63
2019-06-10T06:38:33.512Z,69.97
2019-06-10T06:41:03.203Z,71.80
2019-06-10T06:43:36.386Z,71.27
2019-06-10T06:46:02.489Z,69.87
2019-06-10T06:48:33.590Z,70.37
2019-06-10T06:51:04.860Z,69.57
2019-06-10T06:53:35.233Z,69.20
2019-06-10T06:55:59.328Z,70.03
2019-06-10T06:58:27.332Z,70.30
2019-06-10T07:01:04.126Z,70.90
2019-06-10T07:03:25.097Z,72.37
2019-06-10T07:05:53.788Z,70.80
2019-06-10T07:08:22.822Z,71.63
2019-06-10T07:10:52.271Z,72.37
2019-06-10T07:13:22.174Z,71.73
2019-06-10T07:15:53.301Z,72.50
2019-06-10T07:18:20.093Z,73.37
2019-06-10T07:20:48.020Z,75.13
2019-06-10T07:23:16.508Z,74.30
2019-06-10T07:25:47.260Z,70.10
2019-06-10T07:28:14.083Z,74.97
2019-06-10T07:30:47.256Z,75.63
2019-06-10T07:33:13.548Z,74.17
2019-06-10T07:35:43.750Z,69.60
2019-06-10T07:38:12.210Z,72.33
2019-06-10T07:40:45.258Z,69.20
2019-06-10T07:43:10.130Z,71.20
2019-06-10T07:45:39.408Z,71.33
2019-06-10T07:48:07.883Z,72.70
2019-06-10T07:50:36.537Z,69.00
2019-06-10T07:53:05.532Z,70.37
2019-06-10T07:55:34.998Z,71.50
2019-06-10T07:58:03.189Z,71.10
2019-06-10T08:00:33.375Z,72.30
2019-06-10T08:03:02.465Z,68.67
2019-06-10T08:05:32.332Z,72.53
2019-06-10T08:08:02.675Z,78.33
2019-06-10T08:10:29.848Z,70.47
2019-06-10T08:12:57.889Z,73.27
2019-06-10T08:15:25.921Z,73.63
2019-06-10T08:17:53.853Z,74.23
2019-06-10T08:20:42.204Z,71.00
2019-06-10T08:23:09.466Z,70.00
2019-06-10T08:25:38.460Z,72.10
2019-06-10T08:28:06.542Z,71.37
2019-06-10T08:30:35.571Z,70.60
2019-06-10T08:33:03.680Z,71.50
2019-06-10T08:35:39.527Z,74.67
2019-06-10T08:38:02.497Z,70.63
2019-06-10T08:40:32.607Z,72.17
2019-06-10T08:43:00.279Z,70.13
2019-06-10T08:45:28.224Z,71.90
2019-06-10T08:47:56.240Z,73.40
2019-06-10T08:50:24.872Z,72.87
2019-06-10T08:53:09.213Z,73.67
2019-06-10T08:55:22.923Z,74.50
2019-06-10T08:57:53.866Z,72.03
2019-06-10T09:00:25.469Z,73.33
2019-06-10T09:02:53.952Z,76.17
2019-06-10T09:05:23.231Z,73.00
2019-06-10T09:07:54.325Z,72.87
2019-06-10T09:10:22.687Z,72.63
2019-06-10T09:12:54.379Z,76.17
2019-06-10T09:15:21.396Z,75.10
2019-06-10T09:17:52.954Z,70.87
2019-06-10T09:20:23.074Z,76.10
2019-06-10T09:23:10.893Z,72.37
2019-06-10T09:25:22.450Z,74.77
2019-06-10T09:27:51.940Z,74.40
2019-06-10T09:30:19.432Z,77.37
2019-06-10T09:32:51.379Z,71.33
2019-06-10T09:35:17.138Z,76.90
2019-06-10T09:37:48.361Z,75.53
2019-06-10T09:40:14.990Z,71.97
2019-06-10T09:42:46.225Z,73.97
2019-06-10T09:45:13.064Z,74.60
2019-06-10T09:47:46.756Z,75.20
2019-06-10T09:50:12.268Z,76.57
2019-06-10T09:52:46.057Z,76.70
2019-06-10T09:55:12.856Z,75.07
2019-06-10T09:57:43.683Z,76.00
2019-06-10T10:00:12.517Z,75.87
2019-06-10T10:02:44.516Z,73.67
2019-06-10T10:05:11.653Z,73.77
2019-06-10T10:07:42.150Z,74.07
2019-06-10T10:10:12.672Z,78.53
2019-06-10T10:12:39.661Z,78.47
2019-06-10T10:15:22.573Z,75.33
2019-06-10T10:17:38.240Z,74.63
2019-06-10T10:20:06.521Z,74.20
2019-06-10T10:22:34.517Z,74.70
2019-06-10T10:25:03.053Z,78.20
2019-06-10T10:27:32.298Z,75.03
2019-06-10T10:30:03.141Z,74.17
2019-06-10T10:32:30.218Z,76.50
2019-06-10T10:34:58.188Z,74.33
2019-06-10T10:37:26.260Z,76.77
2019-06-10T10:39:56.459Z,77.87
2019-06-10T10:42:23.873Z,78.87
2019-06-10T10:44:57.486Z,80.33
2019-06-10T10:47:25.181Z,78.27
2019-06-10T10:49:55.250Z,77.47
2019-06-10T10:52:22.449Z,76.20
2019-06-10T10:54:51.880Z,78.03
2019-06-10T10:57:23.017Z,80.20
2019-06-10T10:59:53.975Z,77.87
2019-06-10T11:02:22.660Z,78.23
2019-06-10T11:04:49.984Z,76.50
2019-06-10T11:07:17.966Z,76.67
2019-06-10T11:09:46.648Z,85.63
2019-06-10T11:12:16.134Z,80.50
2019-06-10T11:14:44.866Z,79.37
2019-06-10T11:17:12.960Z,78.37
2019-06-10T11:19:40.865Z,76.37
2019-06-10T11:22:08.819Z,76.90
2019-06-10T11:24:41.142Z,76.60
2019-06-10T11:27:06.412Z,79.10
2019-06-10T11:29:34.349Z,80.83
2019-06-10T11:32:03.125Z,78.67
2019-06-10T11:34:33.271Z,81.00
2019-06-10T11:37:02.295Z,80.50
2019-06-10T11:39:33.024Z,76.60
2019-06-10T11:42:02.216Z,75.40
2019-06-10T11:44:29.867Z,75.50
2019-06-10T11:46:59.697Z,77.53
2019-06-10T11:49:27.437Z,78.07
2019-06-10T11:51:56.466Z,76.97
2019-06-10T11:54:25.122Z,85.23
2019-06-10T11:56:56.349Z,82.40
2019-06-10T11:59:22.795Z,78.50
2019-06-10T12:01:52.591Z,80.17
2019-06-10T12:04:20.296Z,83.43
2019-06-10T12:06:48.652Z,84.83
2019-06-10T12:09:16.727Z,80.80
2019-06-10T12:11:44.702Z,79.67
2019-06-10T12:14:13.069Z,77.57
2019-06-10T12:19:12.726Z,81.20
2019-06-10T12:21:43.214Z,84.83
2019-06-10T12:24:12.459Z,86.43
2019-06-10T12:26:39.793Z,83.77
2019-06-10T12:29:07.857Z,76.40
2019-06-10T12:31:35.830Z,86.20
2019-06-10T12:34:05.980Z,81.63
2019-06-10T12:36:33.526Z,80.77
2019-06-10T12:39:07.924Z,87.33
2019-06-10T12:41:33.239Z,82.20
2019-06-10T12:44:02.917Z,83.17
2019-06-10T12:46:32.744Z,82.73
2019-06-10T12:49:03.920Z,84.00
2019-06-10T12:51:30.211Z,80.50
2019-06-10T12:53:59.368Z,83.80
2019-06-10T12:56:27.509Z,82.23
2019-06-10T12:58:57.426Z,79.23
2019-06-10T13:01:25.303Z,81.13
2019-06-10T13:03:53.759Z,81.03
2019-06-10T13:06:23.570Z,79.50
2019-06-10T13:08:53.289Z,81.73
2019-06-10T13:11:23.404Z,82.30
2019-06-10T13:13:53.040Z,80.70
2019-06-10T13:16:20.784Z,80.60
2019-06-10T13:18:48.762Z,82.23
2019-06-10T13:21:17.901Z,79.47
2019-06-10T13:23:46.137Z,81.73
2019-06-10T13:26:16.679Z,89.83
2019-06-10T13:28:44.568Z,80.47
2019-06-10T13:31:14.048Z,81.40
2019-06-10T13:33:42.891Z,85.00
2019-06-10T13:36:11.396Z,83.53
2019-06-10T13:38:39.442Z,83.63
2019-06-10T13:41:07.794Z,81.97
2019-06-10T13:43:35.934Z,78.90
2019-06-10T13:46:06.988Z,80.10
2019-06-10T13:48:33.726Z,82.30
2019-06-10T13:51:08.360Z,83.00
2019-06-10T13:53:31.369Z,84.53
2019-06-10T13:56:18.982Z,85.43
2019-06-10T13:58:29.107Z,82.93
2019-06-10T14:00:57.011Z,82.97
2019-06-10T14:03:25.045Z,81.97
2019-06-10T14:05:59.154Z,83.00
2019-06-10T14:08:23.293Z,78.57
2019-06-10T14:10:53.683Z,78.13
2019-06-10T14:13:23.543Z,82.27
2019-06-10T14:15:53.016Z,79.90
2019-06-10T14:18:22.897Z,79.50
2019-06-10T14:20:52.830Z,79.90
2019-06-10T14:23:21.825Z,82.20
2019-06-10T14:25:51.979Z,80.07
2019-06-10T14:28:35.788Z,85.00
2019-06-10T14:30:48.937Z,83.13
2019-06-10T14:33:17.006Z,81.83
2019-06-10T14:35:44.979Z,78.17
2019-06-10T14:38:14.588Z,77.43
2019-06-10T14:40:43.078Z,78.87
2019-06-10T14:43:13.503Z,78.63
2019-06-10T14:45:42.477Z,78.50
2019-06-10T14:48:11.465Z,90.00
2019-06-10T14:50:40.262Z,78.30
2019-06-10T14:53:08.965Z,83.57
2019-06-10T14:55:37.001Z,87.53
2019-06-10T14:58:05.389Z,82.30
2019-06-10T15:00:33.558Z,82.60
2019-06-10T15:03:02.503Z,80.23
2019-06-10T15:05:32.379Z,81.33
2019-06-10T15:08:00.335Z,80.10
2019-06-10T15:10:28.334Z,80.00
2019-06-10T15:12:56.380Z,87.10
2019-06-10T15:15:24.480Z,84.43
2019-06-10T15:17:52.683Z,83.90
2019-06-10T15:20:22.716Z,87.73
2019-06-10T15:22:52.656Z,80.13
2019-06-10T15:25:25.404Z,87.57
2019-06-10T15:27:52.079Z,81.00
2019-06-10T15:30:26.372Z,81.40
2019-06-10T15:32:49.463Z,85.67
2019-06-10T15:35:20.131Z,80.33
2019-06-10T15:37:47.249Z,82.13
2019-06-10T15:40:16.777Z,76.93
2019-06-10T15:42:44.950Z,81.47
2019-06-10T15:45:16.284Z,81.70
2019-06-10T15:47:42.839Z,84.30
2019-06-10T15:50:12.887Z,81.13
2019-06-10T15:52:43.032Z,82.83
2019-06-10T15:55:11.248Z,79.30
2019-06-10T15:57:43.724Z,78.60
2019-06-10T16:00:14.310Z,78.07
2019-06-10T16:02:39.660Z,80.43
2019-06-10T16:05:07.614Z,80.50
2019-06-10T16:07:35.674Z,81.47
2019-06-10T16:10:03.964Z,82.53
2019-06-10T16:12:33.019Z,76.63
2019-06-10T16:15:02.664Z,78.97
2019-06-10T16:17:33.115Z,83.97
2019-06-10T16:20:03.650Z,77.00
2019-06-10T16:22:30.124Z,81.53
2019-06-10T16:24:58.103Z,86.80
2019-06-10T16:27:43.399Z,78.47
2019-06-10T16:29:57.638Z,84.27
2019-06-10T16:32:26.510Z,84.17
2019-06-10T16:34:54.909Z,86.27
2019-06-10T16:37:25.321Z,88.73
2019-06-10T16:39:52.536Z,86.17
2019-06-10T16:42:22.965Z,81.40
2019-06-10T16:44:50.197Z,83.87
2019-06-10T16:47:19.100Z,82.30
2019-06-10T16:49:47.176Z,89.13
2019-06-10T16:52:15.051Z,79.60
2019-06-10T16:54:42.963Z,83.50
2019-06-10T16:57:12.392Z,82.73
2019-06-10T16:59:42.784Z,83.07
2019-06-10T17:02:10.133Z,81.97
2019-06-10T17:04:38.028Z,83.60
2019-06-10T17:07:06.016Z,79.60
2019-06-10T17:09:33.965Z,80.10
2019-06-10T17:12:02.370Z,81.00
2019-06-10T17:14:33.365Z,80.37
2019-06-10T17:17:00.242Z,80.53
2019-06-10T17:19:29.947Z,83.03
2019-06-10T17:21:57.807Z,79.80
2019-06-10T17:24:27.331Z,88.40
2019-06-10T17:26:55.484Z,79.93
2019-06-10T17:29:25.968Z,79.37
2019-06-10T17:31:53.184Z,80.97
2019-06-10T17:34:24.595Z,80.70
2019-06-10T17:36:53.637Z,88.00
2019-06-10T17:39:23.373Z,81.63
2019-06-10T17:41:50.572Z,78.23
2019-06-10T17:44:18.689Z,82.77
2019-06-10T17:46:46.833Z,82.03
2019-06-10T17:49:14.885Z,81.83
2019-06-10T17:51:43.372Z,80.40
2019-06-10T17:54:12.943Z,77.57
2019-06-10T17:56:42.619Z,84.43
2019-06-10T17:59:12.829Z,79.40
2019-06-10T18:01:40.469Z,82.27
2019-06-10T18:04:08.542Z,76.27
2019-06-10T18:06:36.648Z,80.10
2019-06-10T18:09:05.708Z,79.07
2019-06-10T18:11:35.673Z,79.27
2019-06-10T18:14:03.464Z,79.43
2019-06-10T18:16:35.898Z,79.87
2019-06-10T18:19:03.401Z,81.67
2019-06-10T18:21:33.536Z,78.77
2019-06-10T18:24:07.382Z,78.73
2019-06-10T18:26:33.406Z,80.53
2019-06-10T18:29:06.052Z,78.77
2019-06-10T18:31:33.518Z,77.43
2019-06-10T18:34:02.365Z,79.97
2019-06-10T18:36:30.653Z,79.87
2019-06-10T18:38:59.419Z,83.70
2019-06-10T18:41:27.845Z,84.10
2019-06-10T18:43:56.108Z,79.10
2019-06-10T18:46:24.174Z,81.40
2019-06-10T18:48:53.630Z,80.07
2019-06-10T18:51:22.938Z,81.37
2019-06-10T18:53:51.295Z,82.63
2019-06-10T18:56:19.294Z,85.70
2019-06-10T18:58:47.315Z,79.83
2019-06-10T19:01:15.400Z,83.47
2019-06-10T19:03:43.418Z,79.10
2019-06-10T19:06:12.587Z,80.23
2019-06-10T19:08:43.923Z,82.80
2019-06-10T19:11:10.396Z,83.53
2019-06-10T19:13:39.167Z,82.03
2019-06-10T19:16:08.240Z,82.60
2019-06-10T19:18:36.271Z,76.53
2019-06-10T19:21:07.718Z,82.70
2019-06-10T19:23:36.117Z,96.00
2019-06-10T19:26:03.662Z,88.20
2019-06-10T19:28:33.901Z,81.00
2019-06-10T19:31:02.422Z,82.20
2019-06-10T19:33:34.106Z,80.00
2019-06-10T19:36:03.095Z,80.87
2019-06-10T19:38:33.979Z,82.17
2019-06-10T19:41:02.751Z,82.23
2019-06-10T19:43:34.517Z,81.77
2019-06-10T19:46:04.342Z,78.77
2019-06-10T19:48:33.103Z,79.87
2019-06-10T19:51:02.906Z,88.90
2019-06-10T19:53:32.596Z,82.53
2019-06-10T19:56:02.575Z,82.57
2019-06-10T19:58:32.396Z,80.27
2019-06-10T20:01:00.522Z,82.30
2019-06-10T20:03:28.848Z,84.80
2019-06-10T20:05:56.921Z,97.70
2019-06-10T20:08:25.141Z,80.67
2019-06-10T20:10:53.425Z,80.40
2019-06-10T20:13:23.020Z,87.17
2019-06-10T20:15:52.502Z,83.77
2019-06-10T20:18:22.709Z,84.70
2019-06-10T20:20:53.790Z,82.70
2019-06-10T20:23:20.798Z,86.33
2019-06-10T20:25:48.927Z,84.33
2019-06-10T20:28:17.192Z,79.83
2019-06-10T20:30:48.672Z,80.97
2019-06-10T20:33:29.114Z,79.93
2019-06-10T20:35:57.366Z,80.07
2019-06-10T20:38:25.365Z,81.37
2019-06-10T20:40:53.783Z,81.47
2019-06-10T20:43:22.387Z,79.50
2019-06-10T20:45:50.608Z,83.40
2019-06-10T20:48:18.768Z,82.93
2019-06-10T20:50:48.527Z,87.40
2019-06-10T20:53:18.667Z,81.23
2019-06-10T20:55:52.047Z,81.50
2019-06-10T20:58:16.577Z,80.70
2019-06-10T21:00:49.857Z,81.43
2019-06-10T21:03:14.348Z,80.27
2019-06-10T21:05:43.889Z,81.13
2019-06-10T21:08:12.317Z,80.33
2019-06-10T21:10:44.704Z,80.60
2019-06-10T21:13:12.324Z,87.43
2019-06-10T21:15:43.519Z,82.03
2019-06-10T21:18:09.997Z,79.07
2019-06-10T21:20:38.048Z,86.27
2019-06-10T21:23:06.341Z,81.37
2019-06-10T21:25:34.488Z,79.00
2019-06-10T21:28:03.423Z,80.63
2019-06-10T21:30:40.583Z,81.87
2019-06-10T21:33:03.435Z,78.20
2019-06-10T21:35:31.210Z,78.97
2019-06-10T21:37:59.158Z,81.80
2019-06-10T21:40:27.096Z,80.47
2019-06-10T21:42:55.188Z,81.83
2019-06-10T21:45:23.307Z,77.50
2019-06-10T21:47:53.345Z,80.47
2019-06-10T21:50:22.690Z,81.47
2019-06-10T21:52:53.094Z,79.47
2019-06-10T21:55:22.313Z,82.13
2019-06-10T21:57:51.569Z,80.50
2019-06-10T22:00:23.173Z,81.93
2019-06-10T22:02:56.346Z,85.03
2019-06-10T22:05:22.455Z,80.23
2019-06-10T22:07:53.230Z,82.70
2019-06-10T22:10:22.905Z,81.13
2019-06-10T22:12:53.161Z,85.20
2019-06-10T22:15:22.614Z,78.47
2019-06-10T22:17:50.915Z,81.27
2019-06-10T22:20:20.102Z,85.00
2019-06-10T22:22:48.551Z,80.67
2019-06-10T22:25:16.871Z,84.93
2019-06-10T22:27:45.768Z,82.27
2019-06-10T22:30:15.044Z,78.93
2019-06-10T22:32:43.082Z,83.03
2019-06-10T22:35:12.228Z,86.13
2019-06-10T22:37:40.594Z,80.80
2019-06-10T22:40:08.566Z,80.57
2019-06-10T22:42:36.450Z,77.60
2019-06-10T22:45:04.573Z,78.47
2019-06-10T22:47:32.497Z,82.43
2019-06-10T22:50:06.109Z,83.13
2019-06-10T22:52:32.120Z,84.20
2019-06-10T22:55:01.084Z,91.40
2019-06-10T22:57:29.691Z,79.70
2019-06-10T22:59:58.148Z,84.60
2019-06-10T23:02:27.407Z,78.10
2019-06-10T23:04:59.100Z,81.13
2019-06-10T23:07:25.069Z,80.13
2019-06-10T23:09:54.497Z,81.20
2019-06-10T23:12:22.709Z,79.90
2019-06-10T23:14:50.756Z,79.40
2019-06-10T23:17:21.972Z,85.30
2019-06-10T23:19:53.302Z,79.07
2019-06-10T23:22:21.912Z,82.40
2019-06-10T23:24:49.526Z,79.17
2019-06-10T23:27:17.691Z,80.50
2019-06-10T23:29:45.661Z,80.00
2019-06-10T23:32:13.642Z,82.13
2019-06-10T23:34:42.235Z,79.83
2019-06-10T23:37:12.548Z,78.87
2019-06-10T23:39:42.455Z,80.03
2019-06-10T23:42:12.079Z,78.30
2019-06-10T23:44:39.306Z,81.17
2019-06-10T23:47:07.293Z,84.80
2019-06-10T23:49:35.268Z,78.47
2019-06-10T23:52:05.175Z,82.90
2019-06-10T23:54:32.931Z,81.10
2019-06-10T23:57:03.985Z,81.93
2019-06-10T23:59:33.098Z,80.33
